sensor_id;sensor_type;location;lat;lon;timestamp;pressure;altitude;pressure_sealevel;temperature;humidity
68107;BME280;54892;47.488;19.026;2023-05-21T00:00:48;100156.84;;;19.22;61.82
68107;BME280;54892;47.488;19.026;2023-05-21T00:03:52;100152.28;;;19.31;61.28
68107;BME280;54892;47.488;19.026;2023-05-21T00:06:55;100150.69;;;19.21;61.55
68107;BME280;54892;47.488;19.026;2023-05-21T00:10:00;100149.91;;;19.21;61.48
68107;BME280;54892;47.488;19.026;2023-05-21T00:13:04;100156.31;;;19.11;61.64
68107;BME280;54892;47.488;19.026;2023-05-21T00:16:07;100172.59;;;19.00;61.98
68107;BME280;54892;47.488;19.026;2023-05-21T00:19:11;100171.06;;;18.99;62.21
68107;BME280;54892;47.488;19.026;2023-05-21T00:22:15;100155.03;;;19.08;61.85
68107;BME280;54892;47.488;19.026;2023-05-21T00:25:19;100159.13;;;19.06;61.71
68107;BME280;54892;47.488;19.026;2023-05-21T00:28:22;100156.09;;;18.98;62.81
68107;BME280;54892;47.488;19.026;2023-05-21T00:31:26;100158.78;;;18.98;62.58
68107;BME280;54892;47.488;19.026;2023-05-21T00:34:29;100161.53;;;18.93;62.45
68107;BME280;54892;47.488;19.026;2023-05-21T00:37:32;100164.59;;;19.00;61.99
68107;BME280;54892;47.488;19.026;2023-05-21T00:40:37;100164.75;;;18.95;62.24
68107;BME280;54892;47.488;19.026;2023-05-21T00:43:42;100165.31;;;18.92;62.26
68107;BME280;54892;47.488;19.026;2023-05-21T00:46:46;100163.94;;;18.95;62.06
68107;BME280;54892;47.488;19.026;2023-05-21T00:49:54;100152.87;;;18.87;62.47
68107;BME280;54892;47.488;19.026;2023-05-21T00:52:58;100155.00;;;18.77;63.09
68107;BME280;54892;47.488;19.026;2023-05-21T00:56:03;100149.34;;;18.78;63.48
68107;BME280;54892;47.488;19.026;2023-05-21T00:59:07;100144.63;;;18.75;63.38
68107;BME280;54892;47.488;19.026;2023-05-21T01:02:11;100154.25;;;18.76;63.44
68107;BME280;54892;47.488;19.026;2023-05-21T01:05:15;100161.34;;;18.81;63.80
68107;BME280;54892;47.488;19.026;2023-05-21T01:08:18;100152.13;;;18.64;63.79
68107;BME280;54892;47.488;19.026;2023-05-21T01:11:32;100157.59;;;18.36;65.21
68107;BME280;54892;47.488;19.026;2023-05-21T01:14:39;100151.63;;;18.39;65.68
68107;BME280;54892;47.488;19.026;2023-05-21T01:17:43;100143.09;;;18.29;66.46
68107;BME280;54892;47.488;19.026;2023-05-21T01:20:47;100137.53;;;18.25;66.78
68107;BME280;54892;47.488;19.026;2023-05-21T01:23:52;100135.06;;;18.29;66.09
68107;BME280;54892;47.488;19.026;2023-05-21T01:26:56;100129.75;;;18.37;65.51
68107;BME280;54892;47.488;19.026;2023-05-21T01:29:59;100131.81;;;18.40;64.73
68107;BME280;54892;47.488;19.026;2023-05-21T01:33:07;100136.88;;;18.42;64.51
68107;BME280;54892;47.488;19.026;2023-05-21T01:36:17;100133.91;;;18.44;64.42
68107;BME280;54892;47.488;19.026;2023-05-21T01:39:29;100138.75;;;18.41;64.58
68107;BME280;54892;47.488;19.026;2023-05-21T01:42:36;100138.41;;;18.34;64.63
68107;BME280;54892;47.488;19.026;2023-05-21T01:45:41;100140.88;;;18.31;64.91
68107;BME280;54892;47.488;19.026;2023-05-21T01:48:46;100146.84;;;18.28;65.27
68107;BME280;54892;47.488;19.026;2023-05-21T01:51:50;100143.84;;;18.29;65.05
68107;BME280;54892;47.488;19.026;2023-05-21T01:54:56;100144.78;;;18.24;65.05
68107;BME280;54892;47.488;19.026;2023-05-21T01:58:01;100137.97;;;18.18;65.22
68107;BME280;54892;47.488;19.026;2023-05-21T02:01:04;100141.13;;;18.20;65.16
68107;BME280;54892;47.488;19.026;2023-05-21T02:04:08;100140.44;;;18.15;65.51
68107;BME280;54892;47.488;19.026;2023-05-21T02:07:11;100140.28;;;18.11;66.02
68107;BME280;54892;47.488;19.026;2023-05-21T02:10:16;100140.28;;;18.11;65.63
68107;BME280;54892;47.488;19.026;2023-05-21T02:13:20;100137.28;;;18.13;65.58
68107;BME280;54892;47.488;19.026;2023-05-21T02:16:24;100141.16;;;18.06;65.76
68107;BME280;54892;47.488;19.026;2023-05-21T02:19:28;100131.38;;;18.02;65.95
68107;BME280;54892;47.488;19.026;2023-05-21T02:22:31;100129.09;;;17.95;66.45
68107;BME280;54892;47.488;19.026;2023-05-21T02:25:36;100136.03;;;17.96;66.38
68107;BME280;54892;47.488;19.026;2023-05-21T02:28:39;100132.25;;;17.97;66.11
68107;BME280;54892;47.488;19.026;2023-05-21T02:31:43;100129.03;;;18.00;65.89
68107;BME280;54892;47.488;19.026;2023-05-21T02:34:46;100127.03;;;17.92;66.23
68107;BME280;54892;47.488;19.026;2023-05-21T02:37:50;100130.78;;;17.91;65.93
68107;BME280;54892;47.488;19.026;2023-05-21T02:40:54;100129.22;;;17.90;66.15
68107;BME280;54892;47.488;19.026;2023-05-21T02:43:58;100120.34;;;17.80;66.62
68107;BME280;54892;47.488;19.026;2023-05-21T02:47:02;100117.53;;;18.00;72.92
68107;BME280;54892;47.488;19.026;2023-05-21T02:50:06;100128.28;;;19.08;72.30
68107;BME280;54892;47.488;19.026;2023-05-21T02:53:09;100131.69;;;19.40;69.22
68107;BME280;54892;47.488;19.026;2023-05-21T02:56:14;100127.38;;;19.13;63.80
68107;BME280;54892;47.488;19.026;2023-05-21T02:59:18;100127.78;;;18.75;63.81
68107;BME280;54892;47.488;19.026;2023-05-21T03:02:22;100130.25;;;18.39;64.85
68107;BME280;54892;47.488;19.026;2023-05-21T03:05:25;100136.78;;;18.10;66.10
68107;BME280;54892;47.488;19.026;2023-05-21T03:08:29;100129.41;;;17.93;66.40
68107;BME280;54892;47.488;19.026;2023-05-21T03:11:35;100124.00;;;17.85;66.74
68107;BME280;54892;47.488;19.026;2023-05-21T03:14:38;100119.66;;;17.75;67.05
68107;BME280;54892;47.488;19.026;2023-05-21T03:17:43;100125.91;;;17.70;67.24
68107;BME280;54892;47.488;19.026;2023-05-21T03:20:46;100117.00;;;17.61;67.53
68107;BME280;54892;47.488;19.026;2023-05-21T03:23:49;100111.50;;;17.57;67.93
68107;BME280;54892;47.488;19.026;2023-05-21T03:26:55;100113.97;;;17.54;68.10
68107;BME280;54892;47.488;19.026;2023-05-21T03:30:00;100118.63;;;17.48;68.08
68107;BME280;54892;47.488;19.026;2023-05-21T03:33:03;100113.38;;;17.43;68.04
68107;BME280;54892;47.488;19.026;2023-05-21T03:36:07;100114.19;;;17.43;67.68
68107;BME280;54892;47.488;19.026;2023-05-21T03:39:10;100118.13;;;17.46;67.71
68107;BME280;54892;47.488;19.026;2023-05-21T03:42:15;100124.47;;;17.50;67.83
68107;BME280;54892;47.488;19.026;2023-05-21T03:45:19;100133.66;;;17.44;67.98
68107;BME280;54892;47.488;19.026;2023-05-21T03:48:22;100123.47;;;17.46;67.89
68107;BME280;54892;47.488;19.026;2023-05-21T03:51:26;100127.31;;;17.40;68.32
68107;BME280;54892;47.488;19.026;2023-05-21T03:54:31;100129.22;;;17.39;68.32
68107;BME280;54892;47.488;19.026;2023-05-21T03:57:35;100124.25;;;17.46;68.36
68107;BME280;54892;47.488;19.026;2023-05-21T04:00:39;100130.56;;;17.50;68.19
68107;BME280;54892;47.488;19.026;2023-05-21T04:03:42;100141.34;;;17.45;67.82
68107;BME280;54892;47.488;19.026;2023-05-21T04:06:46;100136.50;;;17.47;67.95
68107;BME280;54892;47.488;19.026;2023-05-21T04:09:50;100137.59;;;17.46;68.15
68107;BME280;54892;47.488;19.026;2023-05-21T04:12:55;100137.59;;;17.46;67.85
68107;BME280;54892;47.488;19.026;2023-05-21T04:15:58;100139.28;;;17.42;67.87
68107;BME280;54892;47.488;19.026;2023-05-21T04:19:01;100139.47;;;17.46;67.82
68107;BME280;54892;47.488;19.026;2023-05-21T04:22:05;100143.25;;;17.59;67.58
68107;BME280;54892;47.488;19.026;2023-05-21T04:25:10;100139.22;;;17.84;66.92
68107;BME280;54892;47.488;19.026;2023-05-21T04:28:14;100148.56;;;18.09;65.66
68107;BME280;54892;47.488;19.026;2023-05-21T04:31:20;100139.41;;;18.47;63.74
68107;BME280;54892;47.488;19.026;2023-05-21T04:34:24;100144.31;;;18.54;63.57
68107;BME280;54892;47.488;19.026;2023-05-21T04:37:28;100146.22;;;18.53;64.19
68107;BME280;54892;47.488;19.026;2023-05-21T04:40:32;100146.53;;;18.52;65.19
68107;BME280;54892;47.488;19.026;2023-05-21T04:43:43;100143.97;;;18.47;64.15
68107;BME280;54892;47.488;19.026;2023-05-21T04:46:47;100146.16;;;18.45;64.18
68107;BME280;54892;47.488;19.026;2023-05-21T04:49:52;100139.06;;;18.40;64.65
68107;BME280;54892;47.488;19.026;2023-05-21T04:53:04;100145.06;;;18.46;63.57
68107;BME280;54892;47.488;19.026;2023-05-21T04:56:33;100137.84;;;18.46;63.85
68107;BME280;54892;47.488;19.026;2023-05-21T04:59:58;100136.47;;;18.49;63.07
68107;BME280;54892;47.488;19.026;2023-05-21T05:03:04;100135.72;;;18.57;62.68
68107;BME280;54892;47.488;19.026;2023-05-21T05:06:12;100140.94;;;18.62;62.66
68107;BME280;54892;47.488;19.026;2023-05-21T05:09:53;100140.81;;;18.67;62.25
68107;BME280;54892;47.488;19.026;2023-05-21T05:13:40;100137.66;;;18.65;62.07
68107;BME280;54892;47.488;19.026;2023-05-21T05:20:29;100142.28;;;18.82;62.25
68107;BME280;54892;47.488;19.026;2023-05-21T05:23:32;100141.94;;;18.98;61.68
68107;BME280;54892;47.488;19.026;2023-05-21T05:26:36;100135.84;;;19.06;60.98
68107;BME280;54892;47.488;19.026;2023-05-21T05:29:40;100141.31;;;19.01;61.64
68107;BME280;54892;47.488;19.026;2023-05-21T05:32:43;100134.41;;;19.09;60.55
68107;BME280;54892;47.488;19.026;2023-05-21T05:35:49;100137.62;;;19.20;60.51
68107;BME280;54892;47.488;19.026;2023-05-21T05:38:52;100143.31;;;19.36;60.33
68107;BME280;54892;47.488;19.026;2023-05-21T05:41:55;100145.87;;;19.41;62.20
68107;BME280;54892;47.488;19.026;2023-05-21T05:44:59;100140.81;;;19.39;61.71
68107;BME280;54892;47.488;19.026;2023-05-21T05:48:03;100139.72;;;19.49;63.33
68107;BME280;54892;47.488;19.026;2023-05-21T05:51:07;100138.97;;;19.57;61.49
68107;BME280;54892;47.488;19.026;2023-05-21T05:54:13;100137.25;;;19.70;60.27
68107;BME280;54892;47.488;19.026;2023-05-21T05:57:16;100130.50;;;19.82;59.71
68107;BME280;54892;47.488;19.026;2023-05-21T06:00:19;100129.59;;;19.95;59.14
68107;BME280;54892;47.488;19.026;2023-05-21T06:03:23;100124.38;;;19.99;57.44
68107;BME280;54892;47.488;19.026;2023-05-21T06:06:28;100122.66;;;20.03;57.26
68107;BME280;54892;47.488;19.026;2023-05-21T06:09:32;100123.28;;;20.26;59.24
68107;BME280;54892;47.488;19.026;2023-05-21T06:12:35;100120.72;;;20.30;56.75
68107;BME280;54892;47.488;19.026;2023-05-21T06:15:38;100122.63;;;20.29;57.72
68107;BME280;54892;47.488;19.026;2023-05-21T06:18:44;100125.13;;;20.34;56.81
68107;BME280;54892;47.488;19.026;2023-05-21T06:21:48;100110.94;;;20.43;57.47
68107;BME280;54892;47.488;19.026;2023-05-21T06:24:52;100117.69;;;20.58;56.03
68107;BME280;54892;47.488;19.026;2023-05-21T06:27:55;100118.16;;;20.60;55.66
68107;BME280;54892;47.488;19.026;2023-05-21T06:30:58;100106.28;;;20.69;58.08
68107;BME280;54892;47.488;19.026;2023-05-21T06:34:02;100107.84;;;20.88;56.54
68107;BME280;54892;47.488;19.026;2023-05-21T06:37:07;100101.37;;;20.89;56.25
68107;BME280;54892;47.488;19.026;2023-05-21T06:40:11;100100.06;;;20.95;56.56
68107;BME280;54892;47.488;19.026;2023-05-21T06:43:15;100098.81;;;20.93;56.29
68107;BME280;54892;47.488;19.026;2023-05-21T06:46:18;100096.44;;;21.00;55.91
68107;BME280;54892;47.488;19.026;2023-05-21T06:49:21;100095.00;;;21.03;55.30
68107;BME280;54892;47.488;19.026;2023-05-21T06:52:26;100107.12;;;21.09;55.03
68107;BME280;54892;47.488;19.026;2023-05-21T06:55:30;100092.81;;;21.26;54.12
68107;BME280;54892;47.488;19.026;2023-05-21T06:58:33;100086.28;;;21.36;54.37
68107;BME280;54892;47.488;19.026;2023-05-21T07:01:37;100095.47;;;21.56;55.18
68107;BME280;54892;47.488;19.026;2023-05-21T07:04:43;100088.41;;;21.94;51.58
68107;BME280;54892;47.488;19.026;2023-05-21T07:07:48;100094.00;;;22.68;49.30
68107;BME280;54892;47.488;19.026;2023-05-21T07:10:51;100090.47;;;23.95;46.57
68107;BME280;54892;47.488;19.026;2023-05-21T07:13:57;100090.66;;;25.86;43.03
68107;BME280;54892;47.488;19.026;2023-05-21T07:17:01;100094.13;;;27.23;39.12
68107;BME280;54892;47.488;19.026;2023-05-21T07:20:06;100097.09;;;28.47;38.63
68107;BME280;54892;47.488;19.026;2023-05-21T07:23:12;100097.75;;;29.41;35.15
68107;BME280;54892;47.488;19.026;2023-05-21T07:26:15;100097.13;;;29.87;32.74
68107;BME280;54892;47.488;19.026;2023-05-21T07:29:19;100090.59;;;30.17;34.40
68107;BME280;54892;47.488;19.026;2023-05-21T07:32:23;100087.87;;;30.21;33.40
68107;BME280;54892;47.488;19.026;2023-05-21T07:35:29;100082.00;;;31.02;31.77
68107;BME280;54892;47.488;19.026;2023-05-21T07:38:34;100093.16;;;31.48;31.15
68107;BME280;54892;47.488;19.026;2023-05-21T07:41:37;100080.78;;;31.28;31.77
68107;BME280;54892;47.488;19.026;2023-05-21T07:44:41;100084.22;;;31.43;30.67
68107;BME280;54892;47.488;19.026;2023-05-21T07:47:45;100092.88;;;31.09;31.25
68107;BME280;54892;47.488;19.026;2023-05-21T07:50:48;100086.59;;;31.31;31.60
68107;BME280;54892;47.488;19.026;2023-05-21T07:53:54;100082.66;;;31.39;32.40
68107;BME280;54892;47.488;19.026;2023-05-21T07:56:58;100083.47;;;31.36;30.87
68107;BME280;54892;47.488;19.026;2023-05-21T08:00:04;100085.75;;;31.48;30.46
68107;BME280;54892;47.488;19.026;2023-05-21T08:03:08;100087.75;;;31.33;31.28
68107;BME280;54892;47.488;19.026;2023-05-21T08:06:12;100083.22;;;30.79;31.78
68107;BME280;54892;47.488;19.026;2023-05-21T08:09:17;100085.13;;;30.90;33.13
68107;BME280;54892;47.488;19.026;2023-05-21T08:12:20;100083.22;;;30.40;34.82
68107;BME280;54892;47.488;19.026;2023-05-21T08:15:24;100088.47;;;29.56;34.79
68107;BME280;54892;47.488;19.026;2023-05-21T08:18:27;100077.94;;;28.81;37.38
68107;BME280;54892;47.488;19.026;2023-05-21T08:21:31;100087.03;;;28.09;37.94
68107;BME280;54892;47.488;19.026;2023-05-21T08:24:36;100083.25;;;27.49;40.15
68107;BME280;54892;47.488;19.026;2023-05-21T08:27:40;100080.66;;;26.99;39.14
68107;BME280;54892;47.488;19.026;2023-05-21T08:30:43;100087.87;;;26.92;41.00
68107;BME280;54892;47.488;19.026;2023-05-21T08:33:50;100079.28;;;26.39;40.06
68107;BME280;54892;47.488;19.026;2023-05-21T08:36:53;100070.75;;;26.14;42.32
68107;BME280;54892;47.488;19.026;2023-05-21T08:39:58;100080.66;;;25.87;42.16
68107;BME280;54892;47.488;19.026;2023-05-21T08:43:01;100079.41;;;25.61;42.27
68107;BME280;54892;47.488;19.026;2023-05-21T08:46:07;100080.16;;;25.42;43.81
68107;BME280;54892;47.488;19.026;2023-05-21T08:49:10;100086.78;;;25.44;43.85
68107;BME280;54892;47.488;19.026;2023-05-21T08:52:14;100079.12;;;25.30;43.67
68107;BME280;54892;47.488;19.026;2023-05-21T08:55:20;100075.66;;;25.30;43.84
68107;BME280;54892;47.488;19.026;2023-05-21T08:58:24;100083.88;;;25.37;45.53
68107;BME280;54892;47.488;19.026;2023-05-21T09:01:28;100082.88;;;25.26;43.76
68107;BME280;54892;47.488;19.026;2023-05-21T09:04:33;100068.56;;;25.25;45.03
68107;BME280;54892;47.488;19.026;2023-05-21T09:07:41;100079.25;;;25.18;42.65
68107;BME280;54892;47.488;19.026;2023-05-21T09:10:49;100078.50;;;25.01;44.59
68107;BME280;54892;47.488;19.026;2023-05-21T09:13:52;100075.78;;;25.01;44.40
68107;BME280;54892;47.488;19.026;2023-05-21T09:16:57;100065.31;;;25.00;44.54
68107;BME280;54892;47.488;19.026;2023-05-21T09:20:08;100067.56;;;25.14;46.72
68107;BME280;54892;47.488;19.026;2023-05-21T09:23:16;100064.44;;;25.12;45.00
68107;BME280;54892;47.488;19.026;2023-05-21T09:26:20;100063.09;;;25.21;45.11
68107;BME280;54892;47.488;19.026;2023-05-21T09:29:24;100056.06;;;25.17;43.84
68107;BME280;54892;47.488;19.026;2023-05-21T09:32:28;100064.88;;;25.14;44.14
68107;BME280;54892;47.488;19.026;2023-05-21T09:35:32;100062.78;;;25.07;45.56
68107;BME280;54892;47.488;19.026;2023-05-21T09:38:36;100061.28;;;25.09;46.07
68107;BME280;54892;47.488;19.026;2023-05-21T09:41:41;100068.25;;;25.11;42.50
68107;BME280;54892;47.488;19.026;2023-05-21T09:44:46;100073.84;;;25.18;43.38
68107;BME280;54892;47.488;19.026;2023-05-21T09:47:50;100063.72;;;25.15;42.51
68107;BME280;54892;47.488;19.026;2023-05-21T09:50:54;100075.53;;;25.26;43.93
68107;BME280;54892;47.488;19.026;2023-05-21T09:54:09;100057.69;;;25.21;42.46
68107;BME280;54892;47.488;19.026;2023-05-21T09:57:14;100063.47;;;25.39;42.02
68107;BME280;54892;47.488;19.026;2023-05-21T10:00:19;100061.13;;;25.38;41.45
68107;BME280;54892;47.488;19.026;2023-05-21T10:03:25;100058.81;;;25.36;41.15
68107;BME280;54892;47.488;19.026;2023-05-21T10:06:31;100060.53;;;25.45;41.54
68107;BME280;54892;47.488;19.026;2023-05-21T10:09:34;100055.56;;;25.47;41.12
68107;BME280;54892;47.488;19.026;2023-05-21T10:12:40;100059.03;;;25.47;41.81
68107;BME280;54892;47.488;19.026;2023-05-21T10:15:50;100055.13;;;25.45;42.40
68107;BME280;54892;47.488;19.026;2023-05-21T10:18:56;100048.31;;;25.51;43.16
68107;BME280;54892;47.488;19.026;2023-05-21T10:22:00;100047.44;;;25.47;41.16
68107;BME280;54892;47.488;19.026;2023-05-21T10:25:06;100046.75;;;25.50;42.12
68107;BME280;54892;47.488;19.026;2023-05-21T10:28:15;100039.63;;;25.42;42.86
68107;BME280;54892;47.488;19.026;2023-05-21T10:31:18;100035.06;;;25.46;43.41
68107;BME280;54892;47.488;19.026;2023-05-21T10:34:22;100030.66;;;25.57;41.65
68107;BME280;54892;47.488;19.026;2023-05-21T10:37:26;100028.38;;;25.59;43.14
68107;BME280;54892;47.488;19.026;2023-05-21T10:40:30;100034.72;;;25.67;42.47
68107;BME280;54892;47.488;19.026;2023-05-21T10:43:44;100035.41;;;25.83;41.49
68107;BME280;54892;47.488;19.026;2023-05-21T10:47:19;100036.47;;;25.79;38.08
68107;BME280;54892;47.488;19.026;2023-05-21T10:50:44;100037.28;;;25.60;39.72
68107;BME280;54892;47.488;19.026;2023-05-21T10:54:07;100027.94;;;25.77;40.77
68107;BME280;54892;47.488;19.026;2023-05-21T10:57:25;100019.59;;;25.86;40.64
68107;BME280;54892;47.488;19.026;2023-05-21T11:00:35;100029.50;;;25.78;41.70
68107;BME280;54892;47.488;19.026;2023-05-21T11:03:40;100027.50;;;25.75;42.09
68107;BME280;54892;47.488;19.026;2023-05-21T11:06:46;100025.41;;;25.64;41.40
68107;BME280;54892;47.488;19.026;2023-05-21T11:09:50;100018.66;;;25.38;40.30
68107;BME280;54892;47.488;19.026;2023-05-21T11:13:11;100023.09;;;25.27;42.32
68107;BME280;54892;47.488;19.026;2023-05-21T11:16:16;100019.53;;;25.23;41.56
68107;BME280;54892;47.488;19.026;2023-05-21T11:19:31;100020.81;;;25.29;44.25
68107;BME280;54892;47.488;19.026;2023-05-21T11:22:37;100011.72;;;25.37;42.17
68107;BME280;54892;47.488;19.026;2023-05-21T11:25:40;100018.72;;;25.58;42.97
68107;BME280;54892;47.488;19.026;2023-05-21T11:28:44;100014.19;;;25.86;41.71
68107;BME280;54892;47.488;19.026;2023-05-21T11:31:59;100022.59;;;25.80;41.83
68107;BME280;54892;47.488;19.026;2023-05-21T11:35:04;100017.84;;;25.74;40.45
68107;BME280;54892;47.488;19.026;2023-05-21T11:38:08;100019.69;;;25.69;43.14
68107;BME280;54892;47.488;19.026;2023-05-21T11:41:12;100007.66;;;25.87;41.91
68107;BME280;54892;47.488;19.026;2023-05-21T11:44:37;100005.50;;;25.96;43.30
68107;BME280;54892;47.488;19.026;2023-05-21T11:47:43;100005.41;;;26.12;41.00
68107;BME280;54892;47.488;19.026;2023-05-21T11:50:47;99997.47;;;25.99;43.00
68107;BME280;54892;47.488;19.026;2023-05-21T11:53:51;100003.31;;;25.82;41.76
68107;BME280;54892;47.488;19.026;2023-05-21T11:56:54;100001.09;;;25.88;43.25
68107;BME280;54892;47.488;19.026;2023-05-21T11:59:58;99997.09;;;26.01;39.71
68107;BME280;54892;47.488;19.026;2023-05-21T12:03:03;99992.72;;;26.16;39.88
68107;BME280;54892;47.488;19.026;2023-05-21T12:06:07;99996.97;;;26.17;39.83
68107;BME280;54892;47.488;19.026;2023-05-21T12:09:11;99997.78;;;25.98;39.62
68107;BME280;54892;47.488;19.026;2023-05-21T12:12:17;99996.47;;;25.88;39.85
68107;BME280;54892;47.488;19.026;2023-05-21T12:15:21;99989.12;;;25.65;41.58
68107;BME280;54892;47.488;19.026;2023-05-21T12:18:26;99982.47;;;25.82;42.67
68107;BME280;54892;47.488;19.026;2023-05-21T12:21:30;99980.44;;;25.99;40.69
68107;BME280;54892;47.488;19.026;2023-05-21T12:24:34;99981.94;;;25.96;40.46
68107;BME280;54892;47.488;19.026;2023-05-21T12:27:38;99982.28;;;25.72;39.56
68107;BME280;54892;47.488;19.026;2023-05-21T12:30:42;99974.47;;;25.66;40.45
68107;BME280;54892;47.488;19.026;2023-05-21T12:33:48;99968.03;;;25.75;40.28
68107;BME280;54892;47.488;19.026;2023-05-21T12:36:51;99969.44;;;25.88;40.39
68107;BME280;54892;47.488;19.026;2023-05-21T12:39:58;99970.00;;;25.97;42.10
68107;BME280;54892;47.488;19.026;2023-05-21T12:43:01;99968.75;;;25.72;41.48
68107;BME280;54892;47.488;19.026;2023-05-21T12:46:05;99963.47;;;25.56;43.29
68107;BME280;54892;47.488;19.026;2023-05-21T12:49:29;99961.59;;;25.60;40.75
68107;BME280;54892;47.488;19.026;2023-05-21T12:52:32;99959.25;;;25.58;41.58
68107;BME280;54892;47.488;19.026;2023-05-21T12:55:35;99953.00;;;25.54;43.19
68107;BME280;54892;47.488;19.026;2023-05-21T12:58:39;99948.16;;;25.87;40.38
68107;BME280;54892;47.488;19.026;2023-05-21T13:01:46;99954.59;;;26.02;40.46
68107;BME280;54892;47.488;19.026;2023-05-21T13:04:55;99945.50;;;25.90;38.35
68107;BME280;54892;47.488;19.026;2023-05-21T13:07:59;99946.00;;;25.73;39.58
68107;BME280;54892;47.488;19.026;2023-05-21T13:11:02;99946.00;;;25.73;39.98
68107;BME280;54892;47.488;19.026;2023-05-21T13:14:05;99949.28;;;25.62;40.67
68107;BME280;54892;47.488;19.026;2023-05-21T13:17:08;99934.50;;;25.56;40.72
68107;BME280;54892;47.488;19.026;2023-05-21T13:20:14;99939.94;;;25.36;39.76
68107;BME280;54892;47.488;19.026;2023-05-21T13:23:19;99929.25;;;25.44;40.16
68107;BME280;54892;47.488;19.026;2023-05-21T13:26:22;99920.75;;;25.65;39.42
68107;BME280;54892;47.488;19.026;2023-05-21T13:29:25;99913.91;;;25.94;39.57
68107;BME280;54892;47.488;19.026;2023-05-21T13:32:28;99904.75;;;26.03;40.38
68107;BME280;54892;47.488;19.026;2023-05-21T13:35:34;99904.25;;;26.17;38.86
68107;BME280;54892;47.488;19.026;2023-05-21T13:38:37;99907.47;;;26.26;38.12
68107;BME280;54892;47.488;19.026;2023-05-21T13:41:40;99913.97;;;26.21;39.50
68107;BME280;54892;47.488;19.026;2023-05-21T13:44:46;99911.38;;;26.28;37.78
68107;BME280;54892;47.488;19.026;2023-05-21T13:47:49;99909.91;;;26.35;37.14
68107;BME280;54892;47.488;19.026;2023-05-21T13:50:54;99914.91;;;26.33;39.12
68107;BME280;54892;47.488;19.026;2023-05-21T13:53:57;99905.84;;;26.21;38.29
68107;BME280;54892;47.488;19.026;2023-05-21T13:57:00;99897.22;;;26.12;37.92
68107;BME280;54892;47.488;19.026;2023-05-21T14:00:04;99893.50;;;26.24;36.85
68107;BME280;54892;47.488;19.026;2023-05-21T14:03:09;99892.13;;;26.10;37.51
68107;BME280;54892;47.488;19.026;2023-05-21T14:06:14;99898.47;;;26.18;37.39
68107;BME280;54892;47.488;19.026;2023-05-21T14:09:18;99888.59;;;26.29;36.32
68107;BME280;54892;47.488;19.026;2023-05-21T14:12:21;99873.91;;;26.31;37.88
68107;BME280;54892;47.488;19.026;2023-05-21T14:15:24;99895.88;;;26.25;36.37
68107;BME280;54892;47.488;19.026;2023-05-21T14:18:27;99892.94;;;26.38;37.19
68107;BME280;54892;47.488;19.026;2023-05-21T14:21:32;99894.03;;;26.33;35.63
68107;BME280;54892;47.488;19.026;2023-05-21T14:24:35;99884.00;;;26.34;36.03
68107;BME280;54892;47.488;19.026;2023-05-21T14:27:39;99884.13;;;26.14;37.10
68107;BME280;54892;47.488;19.026;2023-05-21T14:30:43;99885.34;;;26.20;36.66
68107;BME280;54892;47.488;19.026;2023-05-21T14:33:46;99888.06;;;26.20;37.13
68107;BME280;54892;47.488;19.026;2023-05-21T14:36:51;99869.78;;;26.13;37.59
68107;BME280;54892;47.488;19.026;2023-05-21T14:39:54;99872.53;;;26.17;35.46
68107;BME280;54892;47.488;19.026;2023-05-21T14:42:58;99875.78;;;26.26;35.28
68107;BME280;54892;47.488;19.026;2023-05-21T14:46:01;99868.03;;;26.25;34.37
68107;BME280;54892;47.488;19.026;2023-05-21T14:49:05;99877.66;;;26.22;36.64
68107;BME280;54892;47.488;19.026;2023-05-21T14:52:09;99879.94;;;26.20;38.32
68107;BME280;54892;47.488;19.026;2023-05-21T14:55:13;99875.12;;;26.10;37.62
68107;BME280;54892;47.488;19.026;2023-05-21T14:58:17;99873.94;;;26.07;38.94
68107;BME280;54892;47.488;19.026;2023-05-21T15:01:20;99872.88;;;26.12;38.55
68107;BME280;54892;47.488;19.026;2023-05-21T15:04:24;99865.66;;;26.20;38.07
68107;BME280;54892;47.488;19.026;2023-05-21T15:07:29;99863.37;;;26.22;37.72
68107;BME280;54892;47.488;19.026;2023-05-21T15:10:32;99864.84;;;26.19;37.61
68107;BME280;54892;47.488;19.026;2023-05-21T15:13:36;99864.13;;;26.22;36.92
68107;BME280;54892;47.488;19.026;2023-05-21T15:16:43;99859.09;;;26.21;36.09
68107;BME280;54892;47.488;19.026;2023-05-21T15:19:46;99864.13;;;26.22;37.16
68107;BME280;54892;47.488;19.026;2023-05-21T15:22:52;99858.97;;;26.13;37.98
68107;BME280;54892;47.488;19.026;2023-05-21T15:26:00;99863.00;;;26.00;37.68
68107;BME280;54892;47.488;19.026;2023-05-21T15:29:03;99862.25;;;25.99;37.40
68107;BME280;54892;47.488;19.026;2023-05-21T15:32:06;99857.81;;;25.88;38.00
68107;BME280;54892;47.488;19.026;2023-05-21T15:35:10;99866.34;;;25.90;38.33
68107;BME280;54892;47.488;19.026;2023-05-21T15:38:15;99851.97;;;25.86;38.57
68107;BME280;54892;47.488;19.026;2023-05-21T15:41:19;99862.00;;;25.85;38.43
68107;BME280;54892;47.488;19.026;2023-05-21T15:44:23;99858.09;;;25.82;39.13
68107;BME280;54892;47.488;19.026;2023-05-21T15:47:26;99858.16;;;25.86;38.97
68107;BME280;54892;47.488;19.026;2023-05-21T15:50:30;99856.50;;;25.78;39.52
68107;BME280;54892;47.488;19.026;2023-05-21T15:53:34;99856.13;;;25.79;38.04
68107;BME280;54892;47.488;19.026;2023-05-21T15:56:38;99853.72;;;25.97;38.08
68107;BME280;54892;47.488;19.026;2023-05-21T15:59:41;99863.56;;;25.86;37.68
68107;BME280;54892;47.488;19.026;2023-05-21T16:02:44;99860.94;;;25.66;38.47